Terminal Aerodrome Forecast
Issued by NWS Knoxville/Tri Cities, TN

Home | Current Version | Previous Version | Text Only | Print | Product List | Glossary On
Versions: 1 2 3 4 5 6 7 8 9 10 11 12 13 14 15 16
000
FTUS44 KMRX 220537
TAFTRI
TAF
KTRI 220537Z 2206/2306 VRB02KT P6SM VCSH OVC070
     FM220900 13003KT 4SM -RA BR OVC050
     FM221100 09003KT 3SM -RA BR OVC025
     FM221300 VRB03KT 4SM -RA BR OVC015
     FM221800 VRB03KT 4SM -DZ BR OVC025
     FM230000 00000KT P6SM OVC035=

USA.gov is the U.S. government's official web portal to all federal, state and local government web resources and services.